createdAt,value
2017-10-26T00:00:32.830Z,24.63
2017-10-26T00:03:01.855Z,26.93
2017-10-26T00:05:30.118Z,26.30
2017-10-26T00:07:58.378Z,22.90
2017-10-26T00:10:27.416Z,25.20
2017-10-26T00:12:55.681Z,25.40
2017-10-26T00:15:23.930Z,27.33
2017-10-26T00:17:52.953Z,24.70
2017-10-26T00:20:21.213Z,26.90
2017-10-26T00:22:49.460Z,25.37
2017-10-26T00:25:18.499Z,25.17
2017-10-26T00:27:46.752Z,23.03
2017-10-26T00:30:15.017Z,25.33
2017-10-26T00:32:44.043Z,23.63
2017-10-26T00:35:12.293Z,24.90
2017-10-26T00:37:40.550Z,25.50
2017-10-26T00:40:09.562Z,25.40
2017-10-26T00:42:37.827Z,27.30
2017-10-26T00:45:06.839Z,29.63
2017-10-26T00:47:35.094Z,28.77
2017-10-26T00:50:04.116Z,28.70
2017-10-26T00:52:32.371Z,24.40
2017-10-26T00:55:01.387Z,28.37
2017-10-26T00:57:29.652Z,27.60
2017-10-26T00:59:57.890Z,27.63
2017-10-26T01:02:26.142Z,31.60
2017-10-26T01:04:54.396Z,31.33
2017-10-26T01:07:22.654Z,31.77
2017-10-26T01:09:50.904Z,32.90
2017-10-26T01:12:19.932Z,30.43
2017-10-26T01:14:48.187Z,33.60
2017-10-26T01:17:16.439Z,33.43
2017-10-26T01:19:45.459Z,33.80
2017-10-26T01:22:14.483Z,32.17
2017-10-26T01:24:42.742Z,30.20
2017-10-26T01:27:11.002Z,30.33
2017-10-26T01:29:39.260Z,30.50
2017-10-26T01:32:07.504Z,34.03
2017-10-26T01:34:35.762Z,28.77
2017-10-26T01:37:04.020Z,29.63
2017-10-26T01:39:32.266Z,33.07
2017-10-26T01:42:01.278Z,30.83
2017-10-26T01:44:29.535Z,36.10
2017-10-26T01:46:58.587Z,37.70
2017-10-26T01:49:26.845Z,33.93
2017-10-26T01:51:55.082Z,35.20
2017-10-26T01:54:24.108Z,33.40
2017-10-26T01:56:52.352Z,34.67
2017-10-26T01:59:20.612Z,35.60
2017-10-26T02:01:49.648Z,34.27
2017-10-26T02:04:18.647Z,32.07
2017-10-26T02:06:46.902Z,34.07
2017-10-26T02:09:15.169Z,30.57
2017-10-26T02:11:44.185Z,33.13
2017-10-26T02:14:12.447Z,32.13
2017-10-26T02:16:40.697Z,33.00
2017-10-26T02:19:09.722Z,32.13
2017-10-26T02:21:37.983Z,29.87
2017-10-26T02:24:06.246Z,31.07
2017-10-26T02:26:35.265Z,30.20
2017-10-26T02:32:11.956Z,29.70
2017-10-26T02:34:40.218Z,28.87
2017-10-26T02:37:09.231Z,32.90
2017-10-26T02:39:37.492Z,33.50
2017-10-26T02:42:05.742Z,34.80
2017-10-26T02:44:34.767Z,32.43
2017-10-26T02:47:03.013Z,32.23
2017-10-26T02:49:32.040Z,32.77
2017-10-26T02:52:00.286Z,35.67
2017-10-26T02:54:29.310Z,30.27
2017-10-26T02:56:57.553Z,34.50
2017-10-26T02:59:26.575Z,38.17
2017-10-26T03:01:54.826Z,33.40
2017-10-26T03:04:23.866Z,30.77
2017-10-26T03:06:52.115Z,30.80
2017-10-26T03:09:20.366Z,32.93
2017-10-26T03:11:49.386Z,30.37
2017-10-26T03:14:17.622Z,30.83
2017-10-26T03:16:45.878Z,30.77
2017-10-26T03:19:14.122Z,28.57
2017-10-26T03:21:42.377Z,30.40
2017-10-26T03:24:10.624Z,28.13
2017-10-26T03:26:38.870Z,32.33
2017-10-26T03:29:07.115Z,29.27
2017-10-26T03:31:35.370Z,28.57
2017-10-26T03:34:04.387Z,29.80
2017-10-26T03:36:32.637Z,29.23
2017-10-26T03:39:01.647Z,25.50
2017-10-26T03:41:29.904Z,30.57
2017-10-26T03:43:58.915Z,37.10
2017-10-26T03:46:27.163Z,33.20
2017-10-26T03:48:56.187Z,31.40
2017-10-26T03:51:24.436Z,32.40
2017-10-26T03:53:53.458Z,28.43
2017-10-26T03:56:21.714Z,30.37
2017-10-26T03:58:50.725Z,28.47
2017-10-26T04:01:18.987Z,28.30
2017-10-26T04:03:47.991Z,26.87
2017-10-26T04:06:16.241Z,28.67
2017-10-26T04:08:45.258Z,32.33
2017-10-26T04:11:13.512Z,29.20
2017-10-26T04:13:42.528Z,33.40
2017-10-26T04:16:10.808Z,28.37
2017-10-26T04:18:39.045Z,33.37
2017-10-26T04:21:07.294Z,31.93
2017-10-26T04:23:35.559Z,33.20
2017-10-26T04:26:03.802Z,35.60
2017-10-26T04:28:32.062Z,34.30
2017-10-26T04:31:01.074Z,32.80
2017-10-26T04:33:29.325Z,32.63
2017-10-26T04:35:58.338Z,34.20
2017-10-26T04:38:26.595Z,36.73
2017-10-26T04:40:55.606Z,31.93
2017-10-26T04:43:23.861Z,35.60
2017-10-26T04:45:52.872Z,35.10
2017-10-26T04:48:21.133Z,34.40
2017-10-26T04:50:50.145Z,31.30
2017-10-26T04:53:18.399Z,32.80
2017-10-26T04:55:47.415Z,32.60
2017-10-26T04:58:15.674Z,37.10
2017-10-26T05:00:44.690Z,34.60
2017-10-26T05:03:12.941Z,31.27
2017-10-26T05:05:41.958Z,32.60
2017-10-26T05:08:10.215Z,32.10
2017-10-26T05:10:39.222Z,33.17
2017-10-26T05:13:07.479Z,37.73
2017-10-26T05:15:36.487Z,32.50
2017-10-26T05:18:04.756Z,32.53
2017-10-26T05:20:33.761Z,35.57
2017-10-26T05:23:02.026Z,36.70
2017-10-26T05:25:30.271Z,35.20
2017-10-26T05:27:58.547Z,32.40
2017-10-26T05:30:26.785Z,33.60
2017-10-26T05:32:55.027Z,34.97
2017-10-26T05:35:23.282Z,32.63
2017-10-26T05:37:52.298Z,35.17
2017-10-26T05:40:20.564Z,32.57
2017-10-26T05:42:49.574Z,32.83
2017-10-26T05:45:17.835Z,34.80
2017-10-26T05:47:46.084Z,42.20
2017-10-26T05:50:14.339Z,32.43
2017-10-26T05:52:42.585Z,36.30
2017-10-26T05:55:10.830Z,29.67
2017-10-26T05:57:39.834Z,32.40
2017-10-26T06:00:08.090Z,32.27
2017-10-26T06:02:36.326Z,32.83
2017-10-26T06:05:05.339Z,35.87
2017-10-26T06:07:33.582Z,37.93
2017-10-26T06:10:01.831Z,29.33
2017-10-26T06:12:30.083Z,34.00
2017-10-26T06:14:59.110Z,34.47
2017-10-26T06:17:27.354Z,25.37
2017-10-26T06:19:56.375Z,36.53
2017-10-26T06:22:24.615Z,31.90
2017-10-26T06:24:52.867Z,33.87
2017-10-26T06:27:21.111Z,31.53
2017-10-26T06:29:49.376Z,50.73
2017-10-26T06:32:17.618Z,39.00
2017-10-26T06:34:46.634Z,38.20
2017-10-26T06:37:14.885Z,34.17
2017-10-26T06:39:43.142Z,34.80
2017-10-26T06:42:11.395Z,28.20
2017-10-26T06:44:39.635Z,27.87
2017-10-26T06:47:07.886Z,25.43
2017-10-26T06:49:36.903Z,25.10
2017-10-26T06:52:05.151Z,23.83
2017-10-26T06:54:33.398Z,24.97
2017-10-26T06:57:01.654Z,25.67
2017-10-26T06:59:29.898Z,27.70
2017-10-26T07:01:58.913Z,26.70
2017-10-26T07:04:27.157Z,36.73
2017-10-26T07:06:56.183Z,33.37
2017-10-26T07:09:24.433Z,38.20
2017-10-26T07:11:53.455Z,36.17
2017-10-26T07:14:21.701Z,28.10
2017-10-26T07:16:50.728Z,27.60
2017-10-26T07:19:18.969Z,27.10
2017-10-26T07:21:47.994Z,26.23
2017-10-26T07:24:16.232Z,24.67
2017-10-26T07:26:45.263Z,23.60
2017-10-26T07:29:13.505Z,27.67
2017-10-26T07:31:42.564Z,28.17
2017-10-26T07:34:10.792Z,24.97
2017-10-26T07:36:39.055Z,23.77
2017-10-26T07:39:08.066Z,19.27
2017-10-26T07:41:36.317Z,13.50
2017-10-26T07:44:05.330Z,12.37
2017-10-26T07:46:33.590Z,10.60
2017-10-26T07:49:01.831Z,8.20
2017-10-26T07:51:30.070Z,9.37
2017-10-26T07:53:58.333Z,8.77
2017-10-26T07:56:26.569Z,9.50
2017-10-26T07:58:55.590Z,14.37
2017-10-26T08:01:23.838Z,14.93
2017-10-26T08:03:52.087Z,13.67
2017-10-26T08:06:20.325Z,12.93
2017-10-26T08:08:48.587Z,11.70
2017-10-26T08:11:16.828Z,11.23
2017-10-26T08:13:45.090Z,10.47
2017-10-26T08:16:13.337Z,11.37
2017-10-26T08:18:41.586Z,10.80
2017-10-26T08:21:10.603Z,10.90
2017-10-26T08:23:38.841Z,15.63
2017-10-26T08:26:07.854Z,19.40
2017-10-26T08:28:36.111Z,17.03
2017-10-26T08:31:05.132Z,15.30
2017-10-26T08:33:33.396Z,15.00
2017-10-26T08:36:01.640Z,13.73
2017-10-26T08:38:29.897Z,15.50
2017-10-26T08:40:58.150Z,15.00
2017-10-26T08:43:26.506Z,15.50
2017-10-26T08:45:54.762Z,14.03
2017-10-26T08:48:23.783Z,12.33
2017-10-26T08:50:52.040Z,12.80
2017-10-26T08:53:21.146Z,12.60
2017-10-26T08:55:49.404Z,13.47
2017-10-26T08:58:18.429Z,14.90
2017-10-26T09:00:46.686Z,13.10
2017-10-26T09:03:14.937Z,12.27
2017-10-26T09:05:43.970Z,12.43
2017-10-26T09:08:12.228Z,12.33
2017-10-26T09:10:40.496Z,12.73
2017-10-26T09:13:08.750Z,13.03
2017-10-26T09:15:37.010Z,12.50
2017-10-26T09:18:05.263Z,16.30
2017-10-26T09:20:34.294Z,16.20
2017-10-26T09:23:02.553Z,14.27
2017-10-26T09:25:30.826Z,12.83
2017-10-26T09:27:59.091Z,12.30
2017-10-26T09:30:28.123Z,12.90
2017-10-26T09:33:02.010Z,12.70
2017-10-26T09:35:30.283Z,13.70
2017-10-26T09:37:58.535Z,12.80
2017-10-26T09:40:27.571Z,13.10
2017-10-26T09:42:55.815Z,12.17
2017-10-26T09:45:24.075Z,11.53
2017-10-26T09:47:53.093Z,10.20
2017-10-26T09:50:21.362Z,12.90
2017-10-26T09:52:49.610Z,11.80
2017-10-26T09:55:17.867Z,10.37
2017-10-26T09:57:46.126Z,12.30
2017-10-26T10:00:14.384Z,9.97
2017-10-26T10:02:42.638Z,11.90
2017-10-26T10:05:10.893Z,10.77
2017-10-26T10:07:39.906Z,10.70
2017-10-26T10:10:08.166Z,11.90
2017-10-26T10:12:37.181Z,12.10
2017-10-26T10:15:05.449Z,14.10
2017-10-26T10:17:33.702Z,12.97
2017-10-26T10:20:02.732Z,14.73
2017-10-26T10:22:30.983Z,14.43
2017-10-26T10:24:59.998Z,16.30
2017-10-26T10:27:28.257Z,13.73
2017-10-26T10:29:57.263Z,15.10
2017-10-26T10:32:25.522Z,15.47
2017-10-26T10:34:54.537Z,14.07
2017-10-26T10:37:22.797Z,12.60
2017-10-26T10:39:51.813Z,12.40
2017-10-26T10:42:20.071Z,10.80
2017-10-26T10:44:48.321Z,11.30
2017-10-26T10:47:16.585Z,11.90
2017-10-26T10:49:44.834Z,12.50
2017-10-26T10:52:13.089Z,12.40
2017-10-26T10:54:41.339Z,14.93
2017-10-26T10:57:10.367Z,14.27
2017-10-26T10:59:44.217Z,13.50
2017-10-26T11:02:12.479Z,14.23
2017-10-26T11:04:40.722Z,14.10
2017-10-26T11:07:08.992Z,14.00
2017-10-26T11:09:37.234Z,13.90
2017-10-26T11:12:06.256Z,15.77
2017-10-26T11:14:34.503Z,13.80
2017-10-26T11:17:03.527Z,14.90
2017-10-26T11:19:31.787Z,15.77
2017-10-26T11:22:00.038Z,15.63
2017-10-26T11:24:29.058Z,15.43
2017-10-26T11:26:57.321Z,14.73
2017-10-26T11:29:26.338Z,14.60
2017-10-26T11:31:54.607Z,14.90
2017-10-26T11:34:22.859Z,21.07
2017-10-26T11:36:51.936Z,137.77
2017-10-26T11:39:20.188Z,41.60
2017-10-26T11:41:48.447Z,56.93
2017-10-26T11:44:16.706Z,20.30
2017-10-26T11:46:44.965Z,16.10
2017-10-26T11:49:13.985Z,11.43
2017-10-26T11:51:42.239Z,14.83
2017-10-26T11:54:10.494Z,11.57
2017-10-26T11:56:39.514Z,13.27
2017-10-26T11:59:07.765Z,12.43
2017-10-26T12:01:36.782Z,11.30
2017-10-26T12:04:05.042Z,10.50
2017-10-26T12:06:34.052Z,8.13
2017-10-26T12:09:02.302Z,9.00
2017-10-26T12:11:31.324Z,8.90
2017-10-26T12:13:59.574Z,8.87
2017-10-26T12:16:28.588Z,8.37
2017-10-26T12:18:56.847Z,7.60
2017-10-26T12:21:25.873Z,7.47
2017-10-26T12:23:54.126Z,7.07
2017-10-26T12:26:23.128Z,6.50
2017-10-26T12:28:51.378Z,5.63
2017-10-26T12:31:20.386Z,6.13
2017-10-26T12:33:48.643Z,6.20
2017-10-26T12:36:17.649Z,6.67
2017-10-26T12:38:46.666Z,6.53
2017-10-26T12:41:14.908Z,5.30
2017-10-26T12:43:43.949Z,6.40
2017-10-26T12:46:12.193Z,4.23
2017-10-26T12:48:40.441Z,2.40
2017-10-26T12:51:08.714Z,2.60
2017-10-26T12:53:36.937Z,3.03
2017-10-26T12:56:05.190Z,2.90
2017-10-26T12:58:34.208Z,3.03
2017-10-26T13:01:02.455Z,2.70
2017-10-26T13:03:31.462Z,3.00
2017-10-26T13:05:59.721Z,3.20
2017-10-26T13:08:28.719Z,2.90
2017-10-26T13:10:57.731Z,2.50
2017-10-26T13:13:25.976Z,2.70
2017-10-26T13:15:54.990Z,2.40
2017-10-26T13:18:23.233Z,2.30
2017-10-26T13:20:51.478Z,1.87
2017-10-26T13:23:19.724Z,2.70
2017-10-26T13:25:47.979Z,2.57
2017-10-26T13:28:16.990Z,2.27
2017-10-26T13:30:45.243Z,2.27
2017-10-26T13:33:14.245Z,2.50
2017-10-26T13:35:42.494Z,1.73
2017-10-26T13:38:10.737Z,2.47
2017-10-26T13:40:38.992Z,2.63
2017-10-26T13:43:07.234Z,2.33
2017-10-26T13:45:36.246Z,2.90
2017-10-26T13:48:04.481Z,2.50
2017-10-26T13:50:32.741Z,3.17
2017-10-26T13:53:00.983Z,4.80
2017-10-26T13:55:29.255Z,4.97
2017-10-26T13:57:57.508Z,5.17
2017-10-26T14:00:26.515Z,5.80
2017-10-26T14:02:54.776Z,5.43
2017-10-26T14:05:23.792Z,5.90
2017-10-26T14:07:52.045Z,5.30
2017-10-26T14:10:21.058Z,4.47
2017-10-26T14:12:49.319Z,4.73
2017-10-26T14:15:17.562Z,5.07
2017-10-26T14:17:45.814Z,7.57
2017-10-26T14:20:14.059Z,4.87
2017-10-26T14:22:42.485Z,3.00
2017-10-26T14:25:10.733Z,2.60
2017-10-26T14:27:38.979Z,2.70
2017-10-26T14:30:07.231Z,2.60
2017-10-26T14:32:36.233Z,2.90
2017-10-26T14:35:05.251Z,2.43
2017-10-26T14:37:33.491Z,2.43
2017-10-26T14:40:02.508Z,2.07
2017-10-26T14:42:30.751Z,3.30
2017-10-26T14:44:58.998Z,2.80
2017-10-26T14:47:27.241Z,2.87
2017-10-26T14:49:55.491Z,2.10
2017-10-26T14:52:24.494Z,2.90
2017-10-26T14:54:53.513Z,2.97
2017-10-26T14:57:21.766Z,2.50
2017-10-26T14:59:50.019Z,2.50
2017-10-26T15:02:18.405Z,2.80
2017-10-26T15:04:47.434Z,2.87
2017-10-26T15:07:15.675Z,2.07
2017-10-26T15:09:44.682Z,2.80
2017-10-26T15:12:12.921Z,2.77
2017-10-26T15:14:41.174Z,2.87
2017-10-26T15:17:09.417Z,2.60
2017-10-26T15:19:37.662Z,2.50
2017-10-26T15:22:06.675Z,2.73
2017-10-26T15:24:34.922Z,2.40
2017-10-26T15:27:03.166Z,2.53
2017-10-26T15:29:31.418Z,2.33
2017-10-26T15:31:59.669Z,2.17
2017-10-26T15:34:28.677Z,1.87
2017-10-26T15:36:56.926Z,2.10
2017-10-26T15:39:25.175Z,2.00
2017-10-26T15:41:53.419Z,2.43
2017-10-26T15:44:21.668Z,3.03
2017-10-26T15:46:49.914Z,2.50
2017-10-26T15:49:18.166Z,2.60
2017-10-26T15:51:46.414Z,2.70
2017-10-26T15:54:14.666Z,3.07
2017-10-26T15:56:42.917Z,2.27
2017-10-26T15:59:11.172Z,3.27
2017-10-26T16:01:39.416Z,3.70
2017-10-26T16:04:07.674Z,3.10
2017-10-26T16:06:36.681Z,3.10
2017-10-26T16:09:04.937Z,3.10
2017-10-26T16:11:33.941Z,3.13
2017-10-26T16:14:02.191Z,3.13
2017-10-26T16:16:31.202Z,3.20
2017-10-26T16:18:59.449Z,3.50
2017-10-26T16:21:28.465Z,3.40
2017-10-26T16:23:56.955Z,3.53
2017-10-26T16:26:25.186Z,2.93
2017-10-26T16:28:53.437Z,4.00
2017-10-26T16:31:21.687Z,3.67
2017-10-26T16:33:49.935Z,4.17
2017-10-26T16:36:18.942Z,5.60
2017-10-26T16:38:47.190Z,4.40
2017-10-26T16:41:15.442Z,4.13
2017-10-26T16:43:43.697Z,5.73
2017-10-26T16:46:11.937Z,5.73
2017-10-26T16:48:40.197Z,5.13
2017-10-26T16:51:09.206Z,5.93
2017-10-26T16:53:37.457Z,5.73
2017-10-26T16:56:05.706Z,6.00
2017-10-26T16:58:34.734Z,6.83
2017-10-26T17:01:03.747Z,6.90
2017-10-26T17:03:32.779Z,7.17
2017-10-26T17:06:01.017Z,6.40
2017-10-26T17:08:29.296Z,7.87
2017-10-26T17:10:57.534Z,6.53
2017-10-26T17:13:25.775Z,6.60
2017-10-26T17:15:54.034Z,7.50
2017-10-26T17:18:22.286Z,6.67
2017-10-26T17:20:51.308Z,7.77
2017-10-26T17:23:19.546Z,7.10
2017-10-26T17:25:48.572Z,7.50
2017-10-26T17:28:16.819Z,7.30
2017-10-26T17:30:45.835Z,8.33
2017-10-26T17:33:14.083Z,7.00
2017-10-26T17:35:43.102Z,7.10
2017-10-26T17:38:11.356Z,7.40
2017-10-26T17:40:40.370Z,6.27
2017-10-26T17:43:08.622Z,6.30
2017-10-26T17:45:37.636Z,6.20
2017-10-26T17:48:05.881Z,7.97
2017-10-26T17:50:34.901Z,7.17
2017-10-26T17:53:03.145Z,7.20
2017-10-26T17:55:31.399Z,7.27
2017-10-26T17:57:59.647Z,7.40
2017-10-26T18:00:27.894Z,6.80
2017-10-26T18:02:56.906Z,7.83
2017-10-26T18:05:25.161Z,7.40
2017-10-26T18:07:54.173Z,7.60
2017-10-26T18:10:22.434Z,7.10
2017-10-26T18:12:50.681Z,8.10
2017-10-26T18:15:18.947Z,7.90
2017-10-26T18:17:47.204Z,7.53
2017-10-26T18:20:15.447Z,7.70
2017-10-26T18:22:43.694Z,7.03
2017-10-26T18:25:12.713Z,8.13
2017-10-26T18:27:40.954Z,7.70
2017-10-26T18:30:09.214Z,8.33
2017-10-26T18:32:37.468Z,8.13
2017-10-26T18:35:05.733Z,8.77
2017-10-26T18:37:33.978Z,8.33
2017-10-26T18:40:02.239Z,8.30
2017-10-26T18:42:30.483Z,8.10
2017-10-26T18:44:58.742Z,8.13
2017-10-26T18:47:26.995Z,8.40
2017-10-26T18:49:55.249Z,7.93
2017-10-26T18:52:24.276Z,8.10
2017-10-26T18:54:52.521Z,7.80
2017-10-26T18:57:21.553Z,8.87
2017-10-26T18:59:49.804Z,7.97
2017-10-26T19:02:18.054Z,8.43
2017-10-26T19:04:47.093Z,8.50
2017-10-26T19:07:15.331Z,9.60
2017-10-26T19:09:44.347Z,8.10
2017-10-26T19:12:12.604Z,8.70
2017-10-26T19:14:41.620Z,8.73
2017-10-26T19:17:09.864Z,9.40
2017-10-26T19:19:38.876Z,8.67
2017-10-26T19:22:07.126Z,8.90
2017-10-26T19:24:36.142Z,8.53
2017-10-26T19:27:04.395Z,9.03
2017-10-26T19:29:33.406Z,8.10
2017-10-26T19:32:01.653Z,8.30
2017-10-26T19:34:29.913Z,8.53
2017-10-26T19:36:58.174Z,8.93
2017-10-26T19:39:26.428Z,8.20
2017-10-26T19:41:54.674Z,8.73
2017-10-26T19:44:25.431Z,8.67
2017-10-26T19:46:53.689Z,8.37
2017-10-26T19:49:22.709Z,10.47
2017-10-26T19:51:50.963Z,10.53
2017-10-26T19:54:19.226Z,10.50
2017-10-26T19:56:48.261Z,10.23
2017-10-26T19:59:16.506Z,10.13
2017-10-26T20:01:44.766Z,10.70
2017-10-26T20:04:13.788Z,10.77
2017-10-26T20:06:42.046Z,10.13
2017-10-26T20:09:11.063Z,10.93
2017-10-26T20:11:39.321Z,10.40
2017-10-26T20:14:07.570Z,9.47
2017-10-26T20:16:35.826Z,9.90
2017-10-26T20:19:04.084Z,11.10
2017-10-26T20:21:32.343Z,10.30
2017-10-26T20:24:00.621Z,11.40
2017-10-26T20:26:28.903Z,11.20
2017-10-26T20:28:57.191Z,10.93
2017-10-26T20:31:25.477Z,11.30
2017-10-26T20:33:53.727Z,11.40
2017-10-26T20:36:36.858Z,10.20
2017-10-26T20:39:05.122Z,9.70
2017-10-26T20:41:33.411Z,11.50
2017-10-26T20:44:01.683Z,10.70
2017-10-26T20:46:30.002Z,10.53
2017-10-26T20:48:58.304Z,10.37
2017-10-26T20:51:32.655Z,10.77
2017-10-26T20:54:06.183Z,10.13
2017-10-26T20:56:40.245Z,11.07
2017-10-26T20:59:14.010Z,11.93
2017-10-26T21:01:47.791Z,11.30
2017-10-26T21:04:21.498Z,12.20
2017-10-26T21:06:49.760Z,10.67
2017-10-26T21:09:23.626Z,10.87
2017-10-26T21:11:57.391Z,10.80
2017-10-26T21:14:28.486Z,10.97
2017-10-26T21:16:56.754Z,11.40
2017-10-26T21:19:25.766Z,10.23
2017-10-26T21:21:54.047Z,11.40
2017-10-26T21:24:22.303Z,11.80
2017-10-26T21:26:50.559Z,12.40
2017-10-26T21:29:19.585Z,11.23
2017-10-26T21:31:47.837Z,11.00
2017-10-26T21:34:16.099Z,11.80
2017-10-26T21:36:45.122Z,11.93
2017-10-26T21:39:13.366Z,11.63
2017-10-26T21:41:42.390Z,13.00
2017-10-26T21:44:10.648Z,12.13
2017-10-26T21:46:38.905Z,11.80
2017-10-26T21:49:07.921Z,11.80
2017-10-26T21:51:36.190Z,13.03
2017-10-26T21:54:05.202Z,13.57
2017-10-26T21:56:32.753Z,13.10
2017-10-26T21:59:01.008Z,12.50
2017-10-26T22:01:30.030Z,12.57
2017-10-26T22:03:58.306Z,12.30
2017-10-26T22:06:26.558Z,12.37
2017-10-26T22:08:55.580Z,13.37
2017-10-26T22:11:23.838Z,11.60
2017-10-26T22:13:52.091Z,14.60
2017-10-26T22:16:21.118Z,12.63
2017-10-26T22:18:49.370Z,11.67
2017-10-26T22:21:18.388Z,14.40
2017-10-26T22:23:46.662Z,14.43
2017-10-26T22:26:14.927Z,13.87
2017-10-26T22:28:43.180Z,14.23
2017-10-26T22:31:12.197Z,13.10
2017-10-26T22:33:40.450Z,14.20
2017-10-26T22:36:09.479Z,13.17
2017-10-26T22:38:37.733Z,13.30
2017-10-26T22:41:06.712Z,13.80
2017-10-26T22:43:35.722Z,14.43
2017-10-26T22:46:03.982Z,15.43
2017-10-26T22:48:33.010Z,14.50
2017-10-26T22:51:01.274Z,15.47
2017-10-26T22:53:29.525Z,14.60
2017-10-26T22:55:58.547Z,16.40
2017-10-26T22:58:26.804Z,14.00
2017-10-26T23:00:55.823Z,16.67
2017-10-26T23:03:24.088Z,17.17
2017-10-26T23:05:52.339Z,15.57
2017-10-26T23:08:21.355Z,17.50
2017-10-26T23:10:49.615Z,17.37
2017-10-26T23:13:18.643Z,16.87
2017-10-26T23:15:46.904Z,20.47
2017-10-26T23:18:15.158Z,16.87
2017-10-26T23:20:44.187Z,18.63
2017-10-26T23:23:12.431Z,18.70
2017-10-26T23:25:41.450Z,19.37
2017-10-26T23:28:09.707Z,19.63
2017-10-26T23:30:38.722Z,17.70
2017-10-26T23:33:06.992Z,17.63
2017-10-26T23:35:35.247Z,20.80
2017-10-26T23:38:04.266Z,19.60
2017-10-26T23:40:32.517Z,19.97
2017-10-26T23:43:00.779Z,19.17
2017-10-26T23:45:29.807Z,20.13
2017-10-26T23:47:58.063Z,19.83
2017-10-26T23:50:26.317Z,22.53
2017-10-26T23:52:54.574Z,21.33
2017-10-26T23:55:22.828Z,24.70
2017-10-26T23:57:51.096Z,22.07
